sensor_id;sensor_type;location;lat;lon;timestamp;pressure;altitude;pressure_sealevel;temperature;humidity
42951;BME280;28592;51.064;17.192;2022-11-15T00:00:09;100393.51;;;5.45;100.00
42951;BME280;28592;51.064;17.192;2022-11-15T00:02:55;100390.78;;;5.47;100.00
42951;BME280;28592;51.064;17.192;2022-11-15T00:05:40;100386.89;;;5.52;100.00
42951;BME280;28592;51.064;17.192;2022-11-15T00:08:29;100381.64;;;5.52;100.00
42951;BME280;28592;51.064;17.192;2022-11-15T00:11:15;100375.83;;;5.47;100.00
42951;BME280;28592;51.064;17.192;2022-11-15T00:14:00;100371.12;;;5.52;100.00
42951;BME280;28592;51.064;17.192;2022-11-15T00:16:47;100362.39;;;5.52;100.00
42951;BME280;28592;51.064;17.192;2022-11-15T00:19:35;100363.55;;;5.48;100.00
42951;BME280;28592;51.064;17.192;2022-11-15T00:22:22;100357.44;;;5.47;100.00
42951;BME280;28592;51.064;17.192;2022-11-15T00:25:11;100357.23;;;5.50;100.00
42951;BME280;28592;51.064;17.192;2022-11-15T00:27:57;100358.19;;;5.49;100.00
42951;BME280;28592;51.064;17.192;2022-11-15T00:30:43;100345.29;;;5.59;100.00
42951;BME280;28592;51.064;17.192;2022-11-15T00:33:28;100344.44;;;5.58;100.00
42951;BME280;28592;51.064;17.192;2022-11-15T00:36:13;100351.40;;;5.59;100.00
42951;BME280;28592;51.064;17.192;2022-11-15T00:39:04;100346.55;;;5.66;100.00
42951;BME280;28592;51.064;17.192;2022-11-15T00:41:53;100349.28;;;5.64;100.00
42951;BME280;28592;51.064;17.192;2022-11-15T00:44:39;100348.43;;;5.51;100.00
42951;BME280;28592;51.064;17.192;2022-11-15T00:47:24;100342.32;;;5.51;100.00
42951;BME280;28592;51.064;17.192;2022-11-15T00:50:09;100338.47;;;5.56;100.00
42951;BME280;28592;51.064;17.192;2022-11-15T00:52:54;100336.66;;;5.57;100.00
42951;BME280;28592;51.064;17.192;2022-11-15T00:55:39;100334.34;;;5.52;100.00
42951;BME280;28592;51.064;17.192;2022-11-15T00:58:24;100327.61;;;5.48;100.00
42951;BME280;28592;51.064;17.192;2022-11-15T01:01:11;100324.13;;;5.48;100.00
42951;BME280;28592;51.064;17.192;2022-11-15T01:03:57;100322.77;;;5.42;100.00
42951;BME280;28592;51.064;17.192;2022-11-15T01:06:42;100330.75;;;5.40;100.00
42951;BME280;28592;51.064;17.192;2022-11-15T01:09:28;100336.72;;;5.42;100.00
42951;BME280;28592;51.064;17.192;2022-11-15T01:12:13;100333.27;;;5.42;100.00
42951;BME280;28592;51.064;17.192;2022-11-15T01:14:59;100336.31;;;5.36;100.00
42951;BME280;28592;51.064;17.192;2022-11-15T01:17:44;100339.75;;;5.36;100.00
42951;BME280;28592;51.064;17.192;2022-11-15T01:20:30;100328.63;;;5.33;100.00
42951;BME280;28592;51.064;17.192;2022-11-15T01:23:15;100331.16;;;5.34;100.00
42951;BME280;28592;51.064;17.192;2022-11-15T01:26:02;100323.98;;;5.24;100.00
42951;BME280;28592;51.064;17.192;2022-11-15T01:28:48;100323.33;;;5.20;100.00
42951;BME280;28592;51.064;17.192;2022-11-15T01:31:33;100317.22;;;5.20;100.00
42951;BME280;28592;51.064;17.192;2022-11-15T01:34:18;100313.33;;;5.13;100.00
42951;BME280;28592;51.064;17.192;2022-11-15T01:37:03;100313.33;;;5.13;100.00
42951;BME280;28592;51.064;17.192;2022-11-15T01:39:48;100308.42;;;5.21;100.00
42951;BME280;28592;51.064;17.192;2022-11-15T01:42:34;100311.55;;;5.13;100.00
42951;BME280;28592;51.064;17.192;2022-11-15T01:45:19;100303.74;;;5.12;100.00
42951;BME280;28592;51.064;17.192;2022-11-15T01:48:08;100303.22;;;5.07;100.00
42951;BME280;28592;51.064;17.192;2022-11-15T01:50:55;100304.14;;;5.06;100.00
42951;BME280;28592;51.064;17.192;2022-11-15T01:53:45;100296.17;;;5.07;100.00
42951;BME280;28592;51.064;17.192;2022-11-15T01:56:37;100290.19;;;5.05;100.00
42951;BME280;28592;51.064;17.192;2022-11-15T01:59:25;100291.12;;;5.04;100.00
42951;BME280;28592;51.064;17.192;2022-11-15T02:02:11;100293.84;;;5.03;100.00
42951;BME280;28592;51.064;17.192;2022-11-15T02:04:58;100281.11;;;4.97;100.00
42951;BME280;28592;51.064;17.192;2022-11-15T02:07:44;100274.39;;;4.93;100.00
42951;BME280;28592;51.064;17.192;2022-11-15T02:10:30;100269.14;;;4.93;100.00
42951;BME280;28592;51.064;17.192;2022-11-15T02:13:15;100274.49;;;4.91;100.00
42951;BME280;28592;51.064;17.192;2022-11-15T02:30:59;100259.80;;;4.89;100.00
42951;BME280;28592;51.064;17.192;2022-11-15T02:39:46;100255.56;;;4.86;100.00
42951;BME280;28592;51.064;17.192;2022-11-15T02:42:41;100246.98;;;4.97;100.00
42951;BME280;28592;51.064;17.192;2022-11-15T02:45:51;100252.02;;;4.87;100.00
42951;BME280;28592;51.064;17.192;2022-11-15T02:48:37;100246.52;;;4.78;100.00
42951;BME280;28592;51.064;17.192;2022-11-15T02:51:23;100240.41;;;4.77;100.00
42951;BME280;28592;51.064;17.192;2022-11-15T02:54:12;100236.22;;;4.75;100.00
42951;BME280;28592;51.064;17.192;2022-11-15T02:57:14;100230.52;;;4.68;100.00
42951;BME280;28592;51.064;17.192;2022-11-15T03:00:06;100227.69;;;4.71;100.00
42951;BME280;28592;51.064;17.192;2022-11-15T03:08:57;100225.41;;;4.53;100.00
42951;BME280;28592;51.064;17.192;2022-11-15T03:11:49;100226.36;;;4.52;100.00
42951;BME280;28592;51.064;17.192;2022-11-15T03:14:50;100225.41;;;4.53;100.00
42951;BME280;28592;51.064;17.192;2022-11-15T03:17:41;100214.88;;;4.40;100.00
42951;BME280;28592;51.064;17.192;2022-11-15T03:20:28;100216.66;;;4.40;100.00
42951;BME280;28592;51.064;17.192;2022-11-15T03:23:14;100221.53;;;4.32;100.00
42951;BME280;28592;51.064;17.192;2022-11-15T03:26:00;100218.06;;;4.31;100.00
42951;BME280;28592;51.064;17.192;2022-11-15T03:28:50;100222.52;;;4.03;100.00
42951;BME280;28592;51.064;17.192;2022-11-15T03:31:43;100216.45;;;4.02;100.00
42951;BME280;28592;51.064;17.192;2022-11-15T03:34:38;100216.36;;;4.04;100.00
42951;BME280;28592;51.064;17.192;2022-11-15T03:37:50;100220.00;;;3.87;100.00
42951;BME280;28592;51.064;17.192;2022-11-15T03:40:33;100210.47;;;3.86;100.00
42951;BME280;28592;51.064;17.192;2022-11-15T03:49:21;100205.22;;;3.72;100.00
42951;BME280;28592;51.064;17.192;2022-11-15T03:52:09;100198.31;;;3.71;100.00
42951;BME280;28592;51.064;17.192;2022-11-15T03:54:56;100203.08;;;3.64;100.00
42951;BME280;28592;51.064;17.192;2022-11-15T03:57:42;100196.72;;;3.54;100.00
42951;BME280;28592;51.064;17.192;2022-11-15T04:03:18;100195.39;;;3.47;100.00
42951;BME280;28592;51.064;17.192;2022-11-15T04:06:04;100196.52;;;3.43;100.00
42951;BME280;28592;51.064;17.192;2022-11-15T04:08:49;100192.14;;;3.44;100.00
42951;BME280;28592;51.064;17.192;2022-11-15T04:11:35;100195.95;;;3.38;100.00
42951;BME280;28592;51.064;17.192;2022-11-15T04:14:20;100192.69;;;3.35;100.00
42951;BME280;28592;51.064;17.192;2022-11-15T04:17:06;100190.89;;;3.35;100.00
42951;BME280;28592;51.064;17.192;2022-11-15T04:19:54;100192.69;;;3.35;100.00
42951;BME280;28592;51.064;17.192;2022-11-15T04:22:53;100197.54;;;3.27;100.00
42951;BME280;28592;51.064;17.192;2022-11-15T04:25:52;100195.86;;;3.26;100.00
42951;BME280;28592;51.064;17.192;2022-11-15T04:28:38;100200.16;;;3.27;100.00
42951;BME280;28592;51.064;17.192;2022-11-15T04:31:34;100191.63;;;3.23;100.00
42951;BME280;28592;51.064;17.192;2022-11-15T04:34:19;100200.34;;;3.24;100.00
42951;BME280;28592;51.064;17.192;2022-11-15T04:37:04;100190.81;;;3.23;100.00
42951;BME280;28592;51.064;17.192;2022-11-15T04:39:59;100193.70;;;3.18;100.00
42951;BME280;28592;51.064;17.192;2022-11-15T04:42:45;100181.52;;;3.17;100.00
42951;BME280;28592;51.064;17.192;2022-11-15T04:45:30;100174.98;;;3.10;100.00
42951;BME280;28592;51.064;17.192;2022-11-15T04:48:15;100184.59;;;3.10;100.00
42951;BME280;28592;51.064;17.192;2022-11-15T04:51:01;100179.55;;;3.07;100.00
42951;BME280;28592;51.064;17.192;2022-11-15T04:53:46;100179.45;;;3.08;100.00
42951;BME280;28592;51.064;17.192;2022-11-15T04:56:31;100169.93;;;3.07;100.00
42951;BME280;28592;51.064;17.192;2022-11-15T04:59:16;100174.67;;;3.01;100.00
42951;BME280;28592;51.064;17.192;2022-11-15T05:02:04;100172.52;;;2.93;100.00
42951;BME280;28592;51.064;17.192;2022-11-15T05:04:50;100173.59;;;2.75;100.00
42951;BME280;28592;51.064;17.192;2022-11-15T05:07:35;100172.06;;;2.71;100.00
42951;BME280;28592;51.064;17.192;2022-11-15T05:10:20;100169.44;;;2.71;100.00
42951;BME280;28592;51.064;17.192;2022-11-15T05:13:06;100155.27;;;2.75;100.00
42951;BME280;28592;51.064;17.192;2022-11-15T05:15:51;100156.86;;;2.78;100.00
42951;BME280;28592;51.064;17.192;2022-11-15T05:18:36;100154.33;;;2.76;100.00
42951;BME280;28592;51.064;17.192;2022-11-15T05:21:28;100158.60;;;2.63;100.00
42951;BME280;28592;51.064;17.192;2022-11-15T05:24:14;100160.62;;;2.58;100.00
42951;BME280;28592;51.064;17.192;2022-11-15T05:26:59;100159.13;;;2.54;100.00
42951;BME280;28592;51.064;17.192;2022-11-15T05:29:44;100155.58;;;2.55;100.00
42951;BME280;28592;51.064;17.192;2022-11-15T05:32:29;100149.50;;;2.55;100.00
42951;BME280;28592;51.064;17.192;2022-11-15T05:38:12;100146.34;;;2.64;100.00
42951;BME280;28592;51.064;17.192;2022-11-15T05:40:59;100147.29;;;2.63;100.00
42951;BME280;28592;51.064;17.192;2022-11-15T05:43:45;100150.76;;;2.63;100.00
42951;BME280;28592;51.064;17.192;2022-11-15T05:46:32;100148.50;;;2.57;100.00
42951;BME280;28592;51.064;17.192;2022-11-15T05:49:20;100153.23;;;2.51;100.00
42951;BME280;28592;51.064;17.192;2022-11-15T05:52:08;100147.32;;;2.47;100.00
42951;BME280;28592;51.064;17.192;2022-11-15T05:54:57;100141.27;;;2.47;100.00
42951;BME280;28592;51.064;17.192;2022-11-15T05:57:43;100145.38;;;2.51;100.00
42951;BME280;28592;51.064;17.192;2022-11-15T06:00:28;100150.88;;;2.46;100.00
42951;BME280;28592;51.064;17.192;2022-11-15T06:03:14;100153.49;;;2.46;100.00
42951;BME280;28592;51.064;17.192;2022-11-15T06:05:59;100153.99;;;2.53;100.00
42951;BME280;28592;51.064;17.192;2022-11-15T06:08:44;100143.62;;;2.51;100.00
42951;BME280;28592;51.064;17.192;2022-11-15T06:11:30;100142.50;;;2.55;100.00
42951;BME280;28592;51.064;17.192;2022-11-15T06:14:15;100141.56;;;2.56;100.00
42951;BME280;28592;51.064;17.192;2022-11-15T06:17:01;100152.78;;;2.58;100.00
42951;BME280;28592;51.064;17.192;2022-11-15T06:19:50;100155.58;;;2.55;100.00
42951;BME280;28592;51.064;17.192;2022-11-15T06:22:35;100152.20;;;2.53;100.00
42951;BME280;28592;51.064;17.192;2022-11-15T06:25:20;100161.66;;;2.56;100.00
42951;BME280;28592;51.064;17.192;2022-11-15T06:28:06;100153.91;;;2.54;100.00
42951;BME280;28592;51.064;17.192;2022-11-15T06:30:51;100159.13;;;2.54;100.00
42951;BME280;28592;51.064;17.192;2022-11-15T06:33:40;100151.38;;;2.53;100.00
42951;BME280;28592;51.064;17.192;2022-11-15T06:36:25;100157.25;;;2.56;100.00
42951;BME280;28592;51.064;17.192;2022-11-15T06:39:10;100145.70;;;2.60;100.00
42951;BME280;28592;51.064;17.192;2022-11-15T06:41:56;100155.86;;;2.80;100.00
42951;BME280;28592;51.064;17.192;2022-11-15T06:44:40;100156.77;;;2.79;100.00
42951;BME280;28592;51.064;17.192;2022-11-15T06:47:26;100147.23;;;2.49;100.00
42951;BME280;28592;51.064;17.192;2022-11-15T06:50:11;100160.09;;;2.67;100.00
42951;BME280;28592;51.064;17.192;2022-11-15T06:53:00;100163.03;;;2.77;100.00
42951;BME280;28592;51.064;17.192;2022-11-15T06:55:47;100165.78;;;2.89;100.00
42951;BME280;28592;51.064;17.192;2022-11-15T06:58:33;100163.89;;;2.91;100.00
42951;BME280;28592;51.064;17.192;2022-11-15T07:01:20;100162.22;;;2.90;100.00
42951;BME280;28592;51.064;17.192;2022-11-15T07:04:06;100155.72;;;3.11;100.00
42951;BME280;28592;51.064;17.192;2022-11-15T07:06:51;100163.87;;;3.21;100.00
42951;BME280;28592;51.064;17.192;2022-11-15T07:09:36;100162.11;;;3.21;100.00
42951;BME280;28592;51.064;17.192;2022-11-15T07:12:22;100171.66;;;3.36;100.00
42951;BME280;28592;51.064;17.192;2022-11-15T07:15:08;100161.18;;;3.36;100.00
42951;BME280;28592;51.064;17.192;2022-11-15T07:17:53;100169.02;;;3.64;100.00
42951;BME280;28592;51.064;17.192;2022-11-15T07:20:38;100168.20;;;3.64;100.00
42951;BME280;28592;51.064;17.192;2022-11-15T07:23:24;100172.11;;;3.71;100.00
42951;BME280;28592;51.064;17.192;2022-11-15T07:26:09;100174.83;;;3.70;100.00
42951;BME280;28592;51.064;17.192;2022-11-15T07:28:54;100186.41;;;3.80;100.00
42951;BME280;28592;51.064;17.192;2022-11-15T07:31:40;100183.88;;;3.78;100.00
42951;BME280;28592;51.064;17.192;2022-11-15T07:34:25;100194.67;;;3.59;100.00
42951;BME280;28592;51.064;17.192;2022-11-15T07:37:10;100192.67;;;3.21;100.00
42951;BME280;28592;51.064;17.192;2022-11-15T07:39:56;100189.61;;;3.42;100.00
42951;BME280;28592;51.064;17.192;2022-11-15T07:42:42;100183.16;;;3.76;100.00
42951;BME280;28592;51.064;17.192;2022-11-15T07:45:43;100179.99;;;4.12;100.00
42951;BME280;28592;51.064;17.192;2022-11-15T07:48:29;100166.06;;;4.38;100.00
42951;BME280;28592;51.064;17.192;2022-11-15T07:51:15;100163.09;;;4.56;100.00
42951;BME280;28592;51.064;17.192;2022-11-15T07:54:01;100171.73;;;4.71;100.00
42951;BME280;28592;51.064;17.192;2022-11-15T07:56:46;100163.95;;;4.69;100.00
42951;BME280;28592;51.064;17.192;2022-11-15T07:59:32;100169.78;;;4.87;100.00
42951;BME280;28592;51.064;17.192;2022-11-15T08:02:17;100169.22;;;5.21;100.00
42951;BME280;28592;51.064;17.192;2022-11-15T08:05:02;100170.59;;;5.39;100.00
42951;BME280;28592;51.064;17.192;2022-11-15T08:07:48;100177.52;;;5.40;100.00
42951;BME280;28592;51.064;17.192;2022-11-15T08:10:33;100164.48;;;5.38;100.00
42951;BME280;28592;51.064;17.192;2022-11-15T08:13:22;100162.91;;;5.36;100.00
42951;BME280;28592;51.064;17.192;2022-11-15T08:16:08;100162.55;;;5.78;100.00
42951;BME280;28592;51.064;17.192;2022-11-15T08:18:53;100159.18;;;5.76;100.00
42951;BME280;28592;51.064;17.192;2022-11-15T08:21:38;100163.99;;;6.07;100.00
42951;BME280;28592;51.064;17.192;2022-11-15T08:24:24;100155.73;;;6.24;100.00
42951;BME280;28592;51.064;17.192;2022-11-15T08:27:09;100149.63;;;6.24;100.00
42951;BME280;28592;51.064;17.192;2022-11-15T08:29:59;100136.71;;;6.44;100.00
42951;BME280;28592;51.064;17.192;2022-11-15T08:32:44;100135.02;;;6.43;100.00
42951;BME280;28592;51.064;17.192;2022-11-15T08:35:30;100139.70;;;6.74;100.00
42951;BME280;28592;51.064;17.192;2022-11-15T08:38:19;100138.03;;;6.73;100.00
42951;BME280;28592;51.064;17.192;2022-11-15T08:41:04;100132.43;;;6.89;100.00
42951;BME280;28592;51.064;17.192;2022-11-15T08:43:51;100135.27;;;7.32;100.00
42951;BME280;28592;51.064;17.192;2022-11-15T08:46:36;100131.94;;;7.30;100.00
42951;BME280;28592;51.064;17.192;2022-11-15T08:49:21;100120.66;;;7.50;100.00
42951;BME280;28592;51.064;17.192;2022-11-15T08:52:07;100119.00;;;7.71;100.00
42951;BME280;28592;51.064;17.192;2022-11-15T08:54:52;100114.67;;;7.70;100.00
42951;BME280;28592;51.064;17.192;2022-11-15T08:57:38;100117.67;;;7.87;100.00
42951;BME280;28592;51.064;17.192;2022-11-15T09:00:23;100119.56;;;8.07;100.00
42951;BME280;28592;51.064;17.192;2022-11-15T09:03:10;100107.54;;;8.25;100.00
42951;BME280;28592;51.064;17.192;2022-11-15T09:05:57;100104.89;;;8.57;100.00
42951;BME280;28592;51.064;17.192;2022-11-15T09:08:43;100113.25;;;8.73;100.00
42951;BME280;28592;51.064;17.192;2022-11-15T09:11:28;100116.06;;;8.81;100.00
42951;BME280;28592;51.064;17.192;2022-11-15T09:14:14;100109.11;;;8.80;100.00
42951;BME280;28592;51.064;17.192;2022-11-15T09:17:00;100117.42;;;8.96;100.00
42951;BME280;28592;51.064;17.192;2022-11-15T09:19:46;100125.03;;;9.31;100.00
42951;BME280;28592;51.064;17.192;2022-11-15T09:22:34;100125.84;;;9.31;100.00
42951;BME280;28592;51.064;17.192;2022-11-15T09:25:23;100125.84;;;9.31;100.00
42951;BME280;28592;51.064;17.192;2022-11-15T09:28:08;100127.95;;;9.58;100.00
42951;BME280;28592;51.064;17.192;2022-11-15T09:30:57;100118.00;;;9.80;100.00
42951;BME280;28592;51.064;17.192;2022-11-15T09:33:44;100116.34;;;9.79;100.00
42951;BME280;28592;51.064;17.192;2022-11-15T09:36:30;100113.59;;;9.90;100.00
42951;BME280;28592;51.064;17.192;2022-11-15T09:39:15;100106.30;;;9.83;100.00
42951;BME280;28592;51.064;17.192;2022-11-15T09:50:51;100095.75;;;10.51;100.00
42951;BME280;28592;51.064;17.192;2022-11-15T09:53:55;100091.13;;;10.62;100.00
42951;BME280;28592;51.064;17.192;2022-11-15T09:56:42;100085.27;;;10.59;100.00
42951;BME280;28592;51.064;17.192;2022-11-15T10:02:40;100080.25;;;10.85;100.00
42951;BME280;28592;51.064;17.192;2022-11-15T10:05:26;100080.33;;;11.12;100.00
42951;BME280;28592;51.064;17.192;2022-11-15T10:11:17;100070.64;;;11.30;100.00
42951;BME280;28592;51.064;17.192;2022-11-15T10:14:17;100059.24;;;11.56;100.00
42951;BME280;28592;51.064;17.192;2022-11-15T10:17:13;100053.41;;;11.80;100.00
42951;BME280;28592;51.064;17.192;2022-11-15T10:22:59;100050.87;;;12.05;100.00
42951;BME280;28592;51.064;17.192;2022-11-15T10:25:46;100053.91;;;11.93;100.00
42951;BME280;28592;51.064;17.192;2022-11-15T10:28:32;100054.51;;;11.87;100.00
42951;BME280;28592;51.064;17.192;2022-11-15T10:31:24;100047.40;;;12.22;100.00
42951;BME280;28592;51.064;17.192;2022-11-15T10:34:23;100047.55;;;12.21;100.00
42951;BME280;28592;51.064;17.192;2022-11-15T10:37:05;100038.14;;;12.44;100.00
42951;BME280;28592;51.064;17.192;2022-11-15T10:43:03;100038.07;;;12.54;100.00
42951;BME280;28592;51.064;17.192;2022-11-15T10:45:38;100023.39;;;12.67;100.00
42951;BME280;28592;51.064;17.192;2022-11-15T10:48:24;100023.15;;;12.78;100.00
42951;BME280;28592;51.064;17.192;2022-11-15T10:54:10;100009.95;;;12.94;100.00
42951;BME280;28592;51.064;17.192;2022-11-15T10:56:59;100010.73;;;13.04;100.00
42951;BME280;28592;51.064;17.192;2022-11-15T10:59:59;100011.44;;;13.14;100.00
42951;BME280;28592;51.064;17.192;2022-11-15T11:05:40;100008.03;;;13.30;100.00
42951;BME280;28592;51.064;17.192;2022-11-15T11:08:25;100006.72;;;13.34;100.00
42951;BME280;28592;51.064;17.192;2022-11-15T11:11:10;100007.89;;;13.39;100.00
42951;BME280;28592;51.064;17.192;2022-11-15T11:14:11;100003.45;;;13.48;100.00
42951;BME280;28592;51.064;17.192;2022-11-15T11:16:54;99994.05;;;13.69;100.00
42951;BME280;28592;51.064;17.192;2022-11-15T11:25:44;99982.98;;;14.14;97.91
42951;BME280;28592;51.064;17.192;2022-11-15T11:37:42;99980.54;;;14.29;97.05
42951;BME280;28592;51.064;17.192;2022-11-15T11:43:34;99965.70;;;14.34;93.97
42951;BME280;28592;51.064;17.192;2022-11-15T11:46:36;99963.36;;;14.71;93.20
42951;BME280;28592;51.064;17.192;2022-11-15T11:49:28;99961.81;;;14.93;93.01
42951;BME280;28592;51.064;17.192;2022-11-15T11:52:30;99955.11;;;15.05;91.95
42951;BME280;28592;51.064;17.192;2022-11-15T11:55:21;99950.79;;;15.04;91.89
42951;BME280;28592;51.064;17.192;2022-11-15T12:01:15;99938.91;;;15.14;88.96
42951;BME280;28592;51.064;17.192;2022-11-15T12:04:11;99927.19;;;15.23;93.36
42951;BME280;28592;51.064;17.192;2022-11-15T12:10:20;99928.59;;;15.50;90.85
42951;BME280;28592;51.064;17.192;2022-11-15T12:13:05;99927.98;;;15.40;90.79
42951;BME280;28592;51.064;17.192;2022-11-15T12:16:03;99929.04;;;15.61;90.77
42951;BME280;28592;51.064;17.192;2022-11-15T12:18:53;99927.10;;;15.78;91.73
42951;BME280;28592;51.064;17.192;2022-11-15T12:24:45;99915.08;;;15.74;91.33
42951;BME280;28592;51.064;17.192;2022-11-15T12:27:38;99908.44;;;15.70;85.45
42951;BME280;28592;51.064;17.192;2022-11-15T12:30:31;99908.63;;;15.68;88.11
42951;BME280;28592;51.064;17.192;2022-11-15T12:39:12;99895.39;;;15.98;85.77
42951;BME280;28592;51.064;17.192;2022-11-15T12:44:57;99892.72;;;15.98;82.70
42951;BME280;28592;51.064;17.192;2022-11-15T12:47:44;99890.71;;;16.00;82.54
42951;BME280;28592;51.064;17.192;2022-11-15T12:53:31;99882.75;;;15.92;83.07
42951;BME280;28592;51.064;17.192;2022-11-15T12:56:20;99883.14;;;16.03;83.71
42951;BME280;28592;51.064;17.192;2022-11-15T12:59:06;99884.22;;;15.94;83.14
42951;BME280;28592;51.064;17.192;2022-11-15T13:01:56;99871.58;;;15.88;82.15
42951;BME280;28592;51.064;17.192;2022-11-15T13:04:42;99871.83;;;16.01;83.02
42951;BME280;28592;51.064;17.192;2022-11-15T13:10:33;99859.14;;;16.18;83.14
42951;BME280;28592;51.064;17.192;2022-11-15T13:13:42;99856.95;;;16.21;83.79
42951;BME280;28592;51.064;17.192;2022-11-15T13:16:20;99854.91;;;16.23;83.52
42951;BME280;28592;51.064;17.192;2022-11-15T13:19:09;99843.41;;;16.23;83.71
42951;BME280;28592;51.064;17.192;2022-11-15T13:21:56;99850.11;;;16.19;83.87
42951;BME280;28592;51.064;17.192;2022-11-15T13:24:54;99840.62;;;16.16;84.14
42951;BME280;28592;51.064;17.192;2022-11-15T13:27:41;99842.63;;;16.14;84.11
42951;BME280;28592;51.064;17.192;2022-11-15T13:30:29;99838.09;;;15.77;85.83
42951;BME280;28592;51.064;17.192;2022-11-15T13:33:18;99839.93;;;15.77;85.86
42951;BME280;28592;51.064;17.192;2022-11-15T13:36:09;99839.48;;;15.73;85.80
42951;BME280;28592;51.064;17.192;2022-11-15T13:39:05;99843.14;;;15.72;86.08
42951;BME280;28592;51.064;17.192;2022-11-15T13:41:51;99841.25;;;15.81;87.00
42951;BME280;28592;51.064;17.192;2022-11-15T13:44:37;99834.27;;;15.80;87.20
42951;BME280;28592;51.064;17.192;2022-11-15T13:47:28;99839.60;;;15.80;86.99
42951;BME280;28592;51.064;17.192;2022-11-15T13:50:14;99836.62;;;15.75;86.39
42951;BME280;28592;51.064;17.192;2022-11-15T13:53:02;99832.09;;;15.53;86.27
42951;BME280;28592;51.064;17.192;2022-11-15T13:55:50;99830.80;;;15.49;86.07
42951;BME280;28592;51.064;17.192;2022-11-15T13:58:38;99828.49;;;15.46;86.00
42951;BME280;28592;51.064;17.192;2022-11-15T14:01:28;99834.19;;;15.43;86.75
42951;BME280;28592;51.064;17.192;2022-11-15T14:04:19;99838.99;;;15.47;87.40
42951;BME280;28592;51.064;17.192;2022-11-15T14:07:14;99841.84;;;15.46;87.37
42951;BME280;28592;51.064;17.192;2022-11-15T14:09:56;99838.33;;;15.45;87.30
42951;BME280;28592;51.064;17.192;2022-11-15T14:15:39;99829.88;;;15.34;87.92
42951;BME280;28592;51.064;17.192;2022-11-15T14:21:21;99814.64;;;15.12;88.05
42951;BME280;28592;51.064;17.192;2022-11-15T14:27:17;99812.63;;;14.83;88.25
42951;BME280;28592;51.064;17.192;2022-11-15T14:30:03;99812.19;;;14.72;88.69
42951;BME280;28592;51.064;17.192;2022-11-15T14:32:50;99813.88;;;14.57;89.43
42951;BME280;28592;51.064;17.192;2022-11-15T14:35:38;99807.94;;;14.39;90.14
42951;BME280;28592;51.064;17.192;2022-11-15T14:38:27;99809.96;;;14.37;90.11
42951;BME280;28592;51.064;17.192;2022-11-15T14:41:20;99804.97;;;14.09;91.42
42951;BME280;28592;51.064;17.192;2022-11-15T14:44:10;99801.83;;;13.98;91.75
42951;BME280;28592;51.064;17.192;2022-11-15T14:46:59;99794.68;;;13.82;92.49
42951;BME280;28592;51.064;17.192;2022-11-15T14:49:45;99793.03;;;13.81;92.79
42951;BME280;28592;51.064;17.192;2022-11-15T14:52:32;99790.36;;;13.49;93.91
42951;BME280;28592;51.064;17.192;2022-11-15T14:55:24;99786.53;;;13.36;94.78
42951;BME280;28592;51.064;17.192;2022-11-15T14:58:13;99786.48;;;13.20;95.49
42951;BME280;28592;51.064;17.192;2022-11-15T15:00:58;99783.64;;;13.05;96.24
42951;BME280;28592;51.064;17.192;2022-11-15T15:03:43;99781.98;;;13.04;95.89
42951;BME280;28592;51.064;17.192;2022-11-15T15:06:28;99782.50;;;12.66;97.74
42951;BME280;28592;51.064;17.192;2022-11-15T15:09:15;99784.39;;;12.48;98.79
42951;BME280;28592;51.064;17.192;2022-11-15T15:12:00;99781.67;;;12.32;99.53
42951;BME280;28592;51.064;17.192;2022-11-15T15:14:47;99768.70;;;12.29;99.33
42951;BME280;28592;51.064;17.192;2022-11-15T15:17:32;99780.32;;;12.02;100.00
42951;BME280;28592;51.064;17.192;2022-11-15T15:20:19;99780.48;;;12.01;100.00
42951;BME280;28592;51.064;17.192;2022-11-15T15:23:05;99771.31;;;11.70;100.00
42951;BME280;28592;51.064;17.192;2022-11-15T15:25:51;99776.45;;;11.54;100.00
42951;BME280;28592;51.064;17.192;2022-11-15T15:28:37;99766.17;;;11.33;100.00
42951;BME280;28592;51.064;17.192;2022-11-15T15:31:24;99758.21;;;11.33;100.00
42951;BME280;28592;51.064;17.192;2022-11-15T15:34:09;99759.13;;;11.24;100.00
42951;BME280;28592;51.064;17.192;2022-11-15T15:40:21;99755.52;;;10.81;100.00
42951;BME280;28592;51.064;17.192;2022-11-15T15:43:07;99765.70;;;10.58;100.00
42951;BME280;28592;51.064;17.192;2022-11-15T15:45:54;99760.70;;;10.55;100.00
42951;BME280;28592;51.064;17.192;2022-11-15T15:48:43;99754.44;;;10.19;100.00
42951;BME280;28592;51.064;17.192;2022-11-15T15:51:35;99754.44;;;10.19;100.00
42951;BME280;28592;51.064;17.192;2022-11-15T15:54:20;99755.02;;;10.13;100.00
42951;BME280;28592;51.064;17.192;2022-11-15T15:57:06;99753.91;;;10.06;100.00
42951;BME280;28592;51.064;17.192;2022-11-15T15:59:59;99750.70;;;10.03;100.00
42951;BME280;28592;51.064;17.192;2022-11-15T16:02:45;99757.01;;;9.92;100.00
42951;BME280;28592;51.064;17.192;2022-11-15T16:05:30;99757.03;;;9.83;100.00
42951;BME280;28592;51.064;17.192;2022-11-15T16:08:23;99754.71;;;9.70;100.00
42951;BME280;28592;51.064;17.192;2022-11-15T16:11:09;99759.45;;;9.48;100.00
42951;BME280;28592;51.064;17.192;2022-11-15T16:13:55;99767.39;;;9.48;100.00
42951;BME280;28592;51.064;17.192;2022-11-15T16:16:40;99760.05;;;9.32;100.00
42951;BME280;28592;51.064;17.192;2022-11-15T16:19:26;99748.90;;;9.19;100.00
42951;BME280;28592;51.064;17.192;2022-11-15T16:22:14;99751.83;;;8.97;100.00
42951;BME280;28592;51.064;17.192;2022-11-15T16:24:59;99741.37;;;8.86;100.00